Inicio METAR Ruta Wind Satelite

Informe Meteorológico

Fecha: 2021/09/21 16:04:40 Local
2021.09.21 21:04 UTC


Operación:
SKSA 212100Z 34007KT 9999 NSC 31/21 Q1008 RMK A2978 =